sensor_id;sensor_type;location;lat;lon;timestamp;temperature;humidity
5828;DHT22;42583;50.240;8.444;2023-07-13T00:12:33;17.90;49.70
5828;DHT22;42583;50.240;8.444;2023-07-13T00:27:34;17.70;50.60
5828;DHT22;42583;50.240;8.444;2023-07-13T00:42:35;17.50;50.60
5828;DHT22;42583;50.240;8.444;2023-07-13T00:57:36;17.30;51.80
5828;DHT22;42583;50.240;8.444;2023-07-13T01:12:37;17.20;51.80
5828;DHT22;42583;50.240;8.444;2023-07-13T01:27:38;17.10;51.80
5828;DHT22;42583;50.240;8.444;2023-07-13T01:42:42;17.00;51.70
5828;DHT22;42583;50.240;8.444;2023-07-13T01:57:42;16.80;51.70
5828;DHT22;42583;50.240;8.444;2023-07-13T02:12:44;16.60;52.00
5828;DHT22;42583;50.240;8.444;2023-07-13T02:27:44;16.20;52.10
5828;DHT22;42583;50.240;8.444;2023-07-13T02:42:45;15.80;53.00
5828;DHT22;42583;50.240;8.444;2023-07-13T02:57:45;15.50;53.30
5828;DHT22;42583;50.240;8.444;2023-07-13T03:12:46;15.20;54.00
5828;DHT22;42583;50.240;8.444;2023-07-13T03:27:46;15.00;54.20
5828;DHT22;42583;50.240;8.444;2023-07-13T03:42:47;14.90;54.80
5828;DHT22;42583;50.240;8.444;2023-07-13T03:57:47;14.70;55.60
5828;DHT22;42583;50.240;8.444;2023-07-13T04:12:48;14.60;56.30
5828;DHT22;42583;50.240;8.444;2023-07-13T04:27:49;14.60;56.80
5828;DHT22;42583;50.240;8.444;2023-07-13T04:42:50;14.60;57.10
5828;DHT22;42583;50.240;8.444;2023-07-13T04:57:53;14.70;57.40
5828;DHT22;42583;50.240;8.444;2023-07-13T05:12:54;14.70;57.60
5828;DHT22;42583;50.240;8.444;2023-07-13T05:27:55;14.80;57.90
5828;DHT22;42583;50.240;8.444;2023-07-13T05:42:55;14.90;58.60
5828;DHT22;42583;50.240;8.444;2023-07-13T05:57:56;15.10;59.20
5828;DHT22;42583;50.240;8.444;2023-07-13T06:12:58;15.30;60.00
5828;DHT22;42583;50.240;8.444;2023-07-13T06:27:59;15.60;60.50
5828;DHT22;42583;50.240;8.444;2023-07-13T06:42:59;16.20;60.30
5828;DHT22;42583;50.240;8.444;2023-07-13T06:58:00;16.70;59.70
5828;DHT22;42583;50.240;8.444;2023-07-13T07:13:01;17.20;59.00
5828;DHT22;42583;50.240;8.444;2023-07-13T07:28:02;17.70;57.40
5828;DHT22;42583;50.240;8.444;2023-07-13T07:43:03;18.30;56.50
5828;DHT22;42583;50.240;8.444;2023-07-13T07:58:05;18.80;54.50
5828;DHT22;42583;50.240;8.444;2023-07-13T08:13:05;19.20;54.60
5828;DHT22;42583;50.240;8.444;2023-07-13T08:28:06;20.10;53.20
5828;DHT22;42583;50.240;8.444;2023-07-13T08:43:16;20.50;51.40
5828;DHT22;42583;50.240;8.444;2023-07-13T08:58:22;20.80;51.20
5828;DHT22;42583;50.240;8.444;2023-07-13T09:28:44;22.20;45.90
5828;DHT22;42583;50.240;8.444;2023-07-13T09:44:12;22.20;46.50
5828;DHT22;42583;50.240;8.444;2023-07-13T09:59:20;22.60;43.60
5828;DHT22;42583;50.240;8.444;2023-07-13T10:14:22;22.70;43.60
5828;DHT22;42583;50.240;8.444;2023-07-13T10:29:29;22.90;43.30
5828;DHT22;42583;50.240;8.444;2023-07-13T10:44:35;23.90;42.90
5828;DHT22;42583;50.240;8.444;2023-07-13T10:59:36;23.80;40.80
5828;DHT22;42583;50.240;8.444;2023-07-13T11:30:31;24.90;39.50
5828;DHT22;42583;50.240;8.444;2023-07-13T11:45:32;25.00;39.10
5828;DHT22;42583;50.240;8.444;2023-07-13T12:00:33;25.60;37.60
5828;DHT22;42583;50.240;8.444;2023-07-13T12:15:39;24.60;38.40
5828;DHT22;42583;50.240;8.444;2023-07-13T12:30:40;24.80;38.80
5828;DHT22;42583;50.240;8.444;2023-07-13T12:45:57;24.80;38.60
5828;DHT22;42583;50.240;8.444;2023-07-13T13:01:01;24.50;39.20
5828;DHT22;42583;50.240;8.444;2023-07-13T13:16:12;23.80;40.20
5828;DHT22;42583;50.240;8.444;2023-07-13T13:31:26;23.60;41.00
5828;DHT22;42583;50.240;8.444;2023-07-13T13:46:27;23.60;40.80
5828;DHT22;42583;50.240;8.444;2023-07-13T14:01:31;23.60;41.40
5828;DHT22;42583;50.240;8.444;2023-07-13T14:16:32;23.20;41.00
5828;DHT22;42583;50.240;8.444;2023-07-13T14:31:34;23.40;41.20
5828;DHT22;42583;50.240;8.444;2023-07-13T14:46:35;22.90;40.60
5828;DHT22;42583;50.240;8.444;2023-07-13T15:01:36;22.50;41.00
5828;DHT22;42583;50.240;8.444;2023-07-13T15:16:37;22.50;41.60
5828;DHT22;42583;50.240;8.444;2023-07-13T15:31:38;22.50;41.10
5828;DHT22;42583;50.240;8.444;2023-07-13T15:46:40;22.70;41.70
5828;DHT22;42583;50.240;8.444;2023-07-13T16:01:40;22.70;41.20
5828;DHT22;42583;50.240;8.444;2023-07-13T16:16:42;22.40;41.10
5828;DHT22;42583;50.240;8.444;2023-07-13T16:31:56;22.60;41.20
5828;DHT22;42583;50.240;8.444;2023-07-13T16:46:57;22.30;41.50
5828;DHT22;42583;50.240;8.444;2023-07-13T17:02:02;22.20;41.80
5828;DHT22;42583;50.240;8.444;2023-07-13T17:17:32;22.20;42.10
5828;DHT22;42583;50.240;8.444;2023-07-13T17:32:34;22.10;42.00
5828;DHT22;42583;50.240;8.444;2023-07-13T17:47:35;21.70;41.90
5828;DHT22;42583;50.240;8.444;2023-07-13T18:02:35;21.40;42.20
5828;DHT22;42583;50.240;8.444;2023-07-13T18:17:36;21.10;42.70
5828;DHT22;42583;50.240;8.444;2023-07-13T18:32:41;20.90;43.10
5828;DHT22;42583;50.240;8.444;2023-07-13T18:47:47;20.60;43.40
5828;DHT22;42583;50.240;8.444;2023-07-13T19:02:50;20.40;43.70
5828;DHT22;42583;50.240;8.444;2023-07-13T19:17:51;20.00;44.00
5828;DHT22;42583;50.240;8.444;2023-07-13T19:32:51;19.50;44.30
5828;DHT22;42583;50.240;8.444;2023-07-13T19:47:52;19.10;44.50
5828;DHT22;42583;50.240;8.444;2023-07-13T20:02:53;18.80;44.90
5828;DHT22;42583;50.240;8.444;2023-07-13T20:17:58;18.50;45.10
5828;DHT22;42583;50.240;8.444;2023-07-13T20:33:04;18.30;45.50
5828;DHT22;42583;50.240;8.444;2023-07-13T20:48:32;18.00;45.70
5828;DHT22;42583;50.240;8.444;2023-07-13T21:03:35;17.80;46.50
5828;DHT22;42583;50.240;8.444;2023-07-13T21:18:37;17.70;46.60
5828;DHT22;42583;50.240;8.444;2023-07-13T21:33:37;17.40;47.00
5828;DHT22;42583;50.240;8.444;2023-07-13T21:48:38;17.10;47.90
5828;DHT22;42583;50.240;8.444;2023-07-13T22:03:39;17.00;50.20
5828;DHT22;42583;50.240;8.444;2023-07-13T22:18:39;16.80;51.00
5828;DHT22;42583;50.240;8.444;2023-07-13T22:33:40;16.70;52.10
5828;DHT22;42583;50.240;8.444;2023-07-13T22:48:43;16.70;53.00
5828;DHT22;42583;50.240;8.444;2023-07-13T23:03:44;16.80;53.90
5828;DHT22;42583;50.240;8.444;2023-07-13T23:18:46;16.90;54.80
5828;DHT22;42583;50.240;8.444;2023-07-13T23:33:47;16.90;55.70
5828;DHT22;42583;50.240;8.444;2023-07-13T23:48:50;16.70;56.90
